Bushnell, Illinois
Current Conditions -  °F | °C
As of 1:55 PM on Sunday 23 Nov 2014 (Local Time) from KMQB Reporting Station
Moderate Rain Moderate Rain  
Wind Chill: 53°   Ceiling: 500
Heat Index: 53°   Visibility: 3mi
Dew Point: 52°   Wind: 10mph
Humidity: 99%   Direction: 160°SSE
Pressure: 29.43"   Gusts: NA
Location:  40.55°N, 90.51°W
Report Text: KMQB 231955Z AUTO 16009KT 3SM RA OVC005 12/11 A2943 RMK AO2 P0012 T01150113
Loading
Personal Weather Stations






























Interactive Weather Map New forecast layout! Learn more

10-Day Weather Forecast

Advertisements
Track Severe Weather on mobile